sensor_id;sensor_type;location;lat;lon;timestamp;pressure;altitude;pressure_sealevel;temperature;humidity
51083;BME280;37131;42.694;23.350;2023-07-20T00:00:21;95125.16;;;22.70;62.93
51083;BME280;37131;42.694;23.350;2023-07-20T00:02:49;95128.69;;;22.56;65.12
51083;BME280;37131;42.694;23.350;2023-07-20T00:05:15;95117.59;;;22.63;65.09
51083;BME280;37131;42.694;23.350;2023-07-20T00:07:43;95113.09;;;22.64;64.38
51083;BME280;37131;42.694;23.350;2023-07-20T00:10:08;95105.47;;;22.71;64.93
51083;BME280;37131;42.694;23.350;2023-07-20T00:12:34;95115.75;;;22.64;65.13
51083;BME280;37131;42.694;23.350;2023-07-20T00:14:59;95112.03;;;22.73;64.58
51083;BME280;37131;42.694;23.350;2023-07-20T00:17:24;95112.09;;;22.82;63.84
51083;BME280;37131;42.694;23.350;2023-07-20T00:19:49;95119.63;;;22.57;63.62
51083;BME280;37131;42.694;23.350;2023-07-20T00:22:15;95123.97;;;22.53;64.73
51083;BME280;37131;42.694;23.350;2023-07-20T00:24:40;95125.56;;;22.18;67.70
51083;BME280;37131;42.694;23.350;2023-07-20T00:27:05;95131.13;;;22.07;68.86
51083;BME280;37131;42.694;23.350;2023-07-20T00:29:31;95136.66;;;22.20;68.66
51083;BME280;37131;42.694;23.350;2023-07-20T00:31:56;95137.66;;;21.87;71.24
51083;BME280;37131;42.694;23.350;2023-07-20T00:34:21;95133.69;;;21.99;71.46
51083;BME280;37131;42.694;23.350;2023-07-20T00:36:47;95140.34;;;21.60;74.76
51083;BME280;37131;42.694;23.350;2023-07-20T00:39:14;95136.91;;;21.45;77.24
51083;BME280;37131;42.694;23.350;2023-07-20T00:41:39;95133.75;;;21.43;78.33
51083;BME280;37131;42.694;23.350;2023-07-20T00:44:04;95119.22;;;21.27;80.28
51083;BME280;37131;42.694;23.350;2023-07-20T00:46:30;95126.78;;;21.19;81.18
51083;BME280;37131;42.694;23.350;2023-07-20T00:48:57;95122.66;;;21.13;82.21
51083;BME280;37131;42.694;23.350;2023-07-20T00:51:22;95128.25;;;21.26;81.88
51083;BME280;37131;42.694;23.350;2023-07-20T00:53:48;95110.56;;;21.21;82.87
51083;BME280;37131;42.694;23.350;2023-07-20T00:56:14;95104.78;;;21.33;82.52
51083;BME280;37131;42.694;23.350;2023-07-20T00:58:39;95111.56;;;21.25;83.29
51083;BME280;37131;42.694;23.350;2023-07-20T01:01:05;95106.63;;;21.18;84.19
51083;BME280;37131;42.694;23.350;2023-07-20T01:03:30;95105.25;;;21.21;84.22
51083;BME280;37131;42.694;23.350;2023-07-20T01:11:13;95115.06;;;21.07;84.28
51083;BME280;37131;42.694;23.350;2023-07-20T01:13:41;95116.88;;;21.11;84.06
51083;BME280;37131;42.694;23.350;2023-07-20T01:16:08;95125.97;;;21.05;84.66
51083;BME280;37131;42.694;23.350;2023-07-20T01:18:33;95122.06;;;21.02;84.54
51083;BME280;37131;42.694;23.350;2023-07-20T01:20:59;95125.00;;;21.01;83.76
51083;BME280;37131;42.694;23.350;2023-07-20T01:28:42;95108.47;;;20.76;84.65
51083;BME280;37131;42.694;23.350;2023-07-20T01:31:34;95112.31;;;20.70;84.97
51083;BME280;37131;42.694;23.350;2023-07-20T01:34:00;95130.88;;;20.65;86.05
51083;BME280;37131;42.694;23.350;2023-07-20T01:36:27;95125.53;;;20.70;86.04
51083;BME280;37131;42.694;23.350;2023-07-20T01:38:53;95132.19;;;20.67;86.49
51083;BME280;37131;42.694;23.350;2023-07-20T01:41:19;95129.44;;;20.73;85.89
51083;BME280;37131;42.694;23.350;2023-07-20T01:43:45;95126.03;;;20.72;85.09
51083;BME280;37131;42.694;23.350;2023-07-20T01:46:10;95116.00;;;20.69;85.19
51083;BME280;37131;42.694;23.350;2023-07-20T01:48:36;95106.31;;;20.78;84.89
51083;BME280;37131;42.694;23.350;2023-07-20T01:51:01;95111.19;;;20.71;84.90
51083;BME280;37131;42.694;23.350;2023-07-20T01:53:26;95121.78;;;20.71;84.73
51083;BME280;37131;42.694;23.350;2023-07-20T01:55:54;95113.09;;;20.84;83.85
51083;BME280;37131;42.694;23.350;2023-07-20T01:58:20;95122.38;;;20.68;84.67
51083;BME280;37131;42.694;23.350;2023-07-20T02:00:45;95118.22;;;20.62;85.59
51083;BME280;37131;42.694;23.350;2023-07-20T02:03:11;95114.75;;;20.47;86.36
51083;BME280;37131;42.694;23.350;2023-07-20T02:05:37;95109.25;;;20.44;86.93
51083;BME280;37131;42.694;23.350;2023-07-20T02:08:02;95115.03;;;20.46;87.30
51083;BME280;37131;42.694;23.350;2023-07-20T02:10:27;95107.06;;;20.32;87.62
51083;BME280;37131;42.694;23.350;2023-07-20T02:12:53;95107.84;;;20.32;87.71
51083;BME280;37131;42.694;23.350;2023-07-20T02:15:18;95103.63;;;20.31;87.95
51083;BME280;37131;42.694;23.350;2023-07-20T02:17:44;95104.41;;;20.32;88.04
51083;BME280;37131;42.694;23.350;2023-07-20T02:20:09;95111.06;;;20.29;87.70
51083;BME280;37131;42.694;23.350;2023-07-20T02:22:35;95108.06;;;20.36;88.49
51083;BME280;37131;42.694;23.350;2023-07-20T02:25:01;95106.97;;;20.37;88.57
51083;BME280;37131;42.694;23.350;2023-07-20T02:27:26;95110.03;;;20.44;87.82
51083;BME280;37131;42.694;23.350;2023-07-20T02:29:51;95108.97;;;20.45;87.90
51083;BME280;37131;42.694;23.350;2023-07-20T02:32:17;95105.44;;;20.50;88.13
51083;BME280;37131;42.694;23.350;2023-07-20T02:34:42;95104.38;;;20.51;88.05
51083;BME280;37131;42.694;23.350;2023-07-20T02:37:07;95097.00;;;20.48;88.21
51083;BME280;37131;42.694;23.350;2023-07-20T02:39:33;95101.19;;;20.35;88.61
51083;BME280;37131;42.694;23.350;2023-07-20T02:41:58;95095.53;;;20.42;89.48
51083;BME280;37131;42.694;23.350;2023-07-20T02:44:23;95088.84;;;20.44;89.56
51083;BME280;37131;42.694;23.350;2023-07-20T02:46:49;95087.38;;;20.38;90.20
51083;BME280;37131;42.694;23.350;2023-07-20T02:49:17;95082.03;;;20.24;89.82
51083;BME280;37131;42.694;23.350;2023-07-20T02:51:42;95083.69;;;20.20;89.44
51083;BME280;37131;42.694;23.350;2023-07-20T02:54:08;95079.38;;;20.24;90.05
51083;BME280;37131;42.694;23.350;2023-07-20T02:56:33;95081.06;;;20.34;90.66
51083;BME280;37131;42.694;23.350;2023-07-20T02:58:58;95086.00;;;20.41;89.93
51083;BME280;37131;42.694;23.350;2023-07-20T03:01:24;95088.59;;;20.27;91.19
51083;BME280;37131;42.694;23.350;2023-07-20T03:03:49;95090.75;;;20.25;91.76
51083;BME280;37131;42.694;23.350;2023-07-20T03:06:15;95087.09;;;20.21;92.27
51083;BME280;37131;42.694;23.350;2023-07-20T03:08:40;95087.69;;;20.18;92.20
51083;BME280;37131;42.694;23.350;2023-07-20T03:11:06;95089.84;;;20.15;92.92
51083;BME280;37131;42.694;23.350;2023-07-20T03:13:32;95095.56;;;20.23;91.86
51083;BME280;37131;42.694;23.350;2023-07-20T03:15:57;95091.34;;;20.22;90.03
51083;BME280;37131;42.694;23.350;2023-07-20T03:18:22;95091.75;;;20.29;89.83
51083;BME280;37131;42.694;23.350;2023-07-20T03:20:47;95100.06;;;20.22;88.89
51083;BME280;37131;42.694;23.350;2023-07-20T03:23:13;95103.84;;;20.16;88.54
51083;BME280;37131;42.694;23.350;2023-07-20T03:25:39;95097.97;;;20.19;87.77
51083;BME280;37131;42.694;23.350;2023-07-20T03:28:04;95107.78;;;20.19;87.76
51083;BME280;37131;42.694;23.350;2023-07-20T03:30:29;95108.38;;;20.15;87.13
51083;BME280;37131;42.694;23.350;2023-07-20T03:32:55;95105.44;;;20.17;86.98
51083;BME280;37131;42.694;23.350;2023-07-20T03:35:20;95108.28;;;20.21;87.10
51083;BME280;37131;42.694;23.350;2023-07-20T03:37:45;95102.78;;;20.17;87.66
51083;BME280;37131;42.694;23.350;2023-07-20T03:40:10;95103.28;;;20.19;87.22
51083;BME280;37131;42.694;23.350;2023-07-20T03:42:36;95109.25;;;20.11;87.58
51083;BME280;37131;42.694;23.350;2023-07-20T03:45:01;95111.31;;;20.14;88.20
51083;BME280;37131;42.694;23.350;2023-07-20T03:47:27;95114.38;;;20.21;88.33
51083;BME280;37131;42.694;23.350;2023-07-20T03:49:53;95113.28;;;20.22;88.89
51083;BME280;37131;42.694;23.350;2023-07-20T03:52:18;95106.06;;;20.09;89.14
51083;BME280;37131;42.694;23.350;2023-07-20T03:54:43;95110.38;;;20.05;90.74
51083;BME280;37131;42.694;23.350;2023-07-20T03:57:09;95112.63;;;19.97;91.07
51083;BME280;37131;42.694;23.350;2023-07-20T03:59:34;95119.28;;;19.71;93.30
51083;BME280;37131;42.694;23.350;2023-07-20T04:02:00;95115.06;;;19.70;93.81
51083;BME280;37131;42.694;23.350;2023-07-20T04:04:25;95118.69;;;19.79;94.43
51083;BME280;37131;42.694;23.350;2023-07-20T04:06:50;95115.50;;;19.77;94.57
51083;BME280;37131;42.694;23.350;2023-07-20T04:09:15;95111.06;;;19.72;96.43
51083;BME280;37131;42.694;23.350;2023-07-20T04:11:41;95115.41;;;19.63;97.69
51083;BME280;37131;42.694;23.350;2023-07-20T04:14:06;95106.97;;;19.61;97.14
51083;BME280;37131;42.694;23.350;2023-07-20T04:16:31;95116.34;;;19.72;96.36
51083;BME280;37131;42.694;23.350;2023-07-20T04:18:57;95114.97;;;19.80;96.16
51083;BME280;37131;42.694;23.350;2023-07-20T04:21:23;95102.56;;;19.75;95.42
51083;BME280;37131;42.694;23.350;2023-07-20T04:23:48;95104.50;;;19.70;95.83
51083;BME280;37131;42.694;23.350;2023-07-20T04:26:13;95101.53;;;19.52;97.09
51083;BME280;37131;42.694;23.350;2023-07-20T04:28:40;95102.59;;;19.51;97.77
51083;BME280;37131;42.694;23.350;2023-07-20T04:31:13;95100.81;;;19.46;98.90
51083;BME280;37131;42.694;23.350;2023-07-20T04:33:39;95100.69;;;19.57;98.39
51083;BME280;37131;42.694;23.350;2023-07-20T04:36:04;95104.53;;;19.64;97.50
51083;BME280;37131;42.694;23.350;2023-07-20T04:38:30;95095.69;;;19.74;95.93
51083;BME280;37131;42.694;23.350;2023-07-20T04:40:55;95096.19;;;19.76;94.96
51083;BME280;37131;42.694;23.350;2023-07-20T04:43:20;95086.75;;;19.70;95.48
51083;BME280;37131;42.694;23.350;2023-07-20T04:45:46;95092.72;;;19.81;95.67
51083;BME280;37131;42.694;23.350;2023-07-20T04:48:12;95091.94;;;19.80;95.51
51083;BME280;37131;42.694;23.350;2023-07-20T04:50:38;95097.56;;;19.93;94.66
51083;BME280;37131;42.694;23.350;2023-07-20T04:53:03;95084.63;;;20.10;93.81
51083;BME280;37131;42.694;23.350;2023-07-20T04:55:28;95087.41;;;20.19;93.25
51083;BME280;37131;42.694;23.350;2023-07-20T04:57:54;95085.66;;;20.28;93.74
51083;BME280;37131;42.694;23.350;2023-07-20T05:00:19;95081.75;;;20.26;93.51
51083;BME280;37131;42.694;23.350;2023-07-20T05:02:45;95084.53;;;20.35;91.04
51083;BME280;37131;42.694;23.350;2023-07-20T05:05:10;95083.84;;;20.43;92.30
51083;BME280;37131;42.694;23.350;2023-07-20T05:07:35;95090.72;;;20.44;91.03
51083;BME280;37131;42.694;23.350;2023-07-20T05:10:00;95083.38;;;20.88;87.24
51083;BME280;37131;42.694;23.350;2023-07-20T05:12:26;95083.84;;;20.90;87.61
51083;BME280;37131;42.694;23.350;2023-07-20T05:14:51;95090.75;;;20.91;88.19
51083;BME280;37131;42.694;23.350;2023-07-20T05:17:16;95092.78;;;20.80;87.12
51083;BME280;37131;42.694;23.350;2023-07-20T05:19:41;95095.63;;;20.97;87.21
51083;BME280;37131;42.694;23.350;2023-07-20T05:22:07;95095.81;;;20.87;86.29
51083;BME280;37131;42.694;23.350;2023-07-20T05:24:32;95092.81;;;20.94;86.10
51083;BME280;37131;42.694;23.350;2023-07-20T05:26:58;95080.72;;;21.01;86.01
51083;BME280;37131;42.694;23.350;2023-07-20T05:29:23;95089.47;;;21.16;84.86
51083;BME280;37131;42.694;23.350;2023-07-20T05:31:48;95095.66;;;21.25;84.75
51083;BME280;37131;42.694;23.350;2023-07-20T05:34:14;95091.41;;;21.38;83.68
51083;BME280;37131;42.694;23.350;2023-07-20T05:36:41;95092.00;;;21.49;83.26
51083;BME280;37131;42.694;23.350;2023-07-20T05:39:06;95088.38;;;21.59;83.08
51083;BME280;37131;42.694;23.350;2023-07-20T05:41:32;95094.94;;;21.61;81.97
51083;BME280;37131;42.694;23.350;2023-07-20T05:43:57;95107.63;;;21.64;81.59
51083;BME280;37131;42.694;23.350;2023-07-20T05:46:22;95113.97;;;21.77;80.50
51083;BME280;37131;42.694;23.350;2023-07-20T05:48:49;95107.16;;;21.85;80.07
51083;BME280;37131;42.694;23.350;2023-07-20T05:51:14;95111.91;;;21.88;79.12
51083;BME280;37131;42.694;23.350;2023-07-20T05:53:40;95109.56;;;22.09;78.38
51083;BME280;37131;42.694;23.350;2023-07-20T05:56:05;95105.25;;;22.13;76.36
51083;BME280;37131;42.694;23.350;2023-07-20T05:58:31;95107.75;;;22.18;76.82
51083;BME280;37131;42.694;23.350;2023-07-20T06:00:56;95102.16;;;22.20;76.79
51083;BME280;37131;42.694;23.350;2023-07-20T06:03:21;95100.94;;;22.26;76.99
51083;BME280;37131;42.694;23.350;2023-07-20T06:05:47;95098.63;;;22.47;77.74
51083;BME280;37131;42.694;23.350;2023-07-20T06:08:12;95099.66;;;22.37;77.72
51083;BME280;37131;42.694;23.350;2023-07-20T06:10:37;95097.03;;;22.46;77.23
51083;BME280;37131;42.694;23.350;2023-07-20T06:13:03;95095.78;;;22.43;75.97
51083;BME280;37131;42.694;23.350;2023-07-20T06:15:30;95097.56;;;22.57;76.47
51083;BME280;37131;42.694;23.350;2023-07-20T06:17:56;95092.28;;;22.88;73.30
51083;BME280;37131;42.694;23.350;2023-07-20T06:20:23;95086.53;;;23.04;71.15
51083;BME280;37131;42.694;23.350;2023-07-20T06:22:48;95083.56;;;23.05;70.76
51083;BME280;37131;42.694;23.350;2023-07-20T06:25:13;95077.91;;;22.98;71.06
51083;BME280;37131;42.694;23.350;2023-07-20T06:27:39;95079.22;;;23.09;70.57
51083;BME280;37131;42.694;23.350;2023-07-20T06:30:04;95071.41;;;23.13;71.70
51083;BME280;37131;42.694;23.350;2023-07-20T06:32:29;95071.78;;;23.29;70.79
51083;BME280;37131;42.694;23.350;2023-07-20T06:34:55;95072.31;;;23.08;69.03
51083;BME280;37131;42.694;23.350;2023-07-20T06:37:20;95076.66;;;23.27;69.74
51083;BME280;37131;42.694;23.350;2023-07-20T06:39:45;95076.97;;;23.43;70.18
51083;BME280;37131;42.694;23.350;2023-07-20T06:42:11;95073.09;;;23.49;71.04
51083;BME280;37131;42.694;23.350;2023-07-20T06:44:36;95071.69;;;23.60;68.52
51083;BME280;37131;42.694;23.350;2023-07-20T06:47:02;95075.88;;;23.44;70.16
51083;BME280;37131;42.694;23.350;2023-07-20T06:49:27;95080.63;;;23.73;70.44
51083;BME280;37131;42.694;23.350;2023-07-20T06:51:53;95073.13;;;23.67;70.53
51083;BME280;37131;42.694;23.350;2023-07-20T06:54:18;95077.84;;;23.96;69.38
51083;BME280;37131;42.694;23.350;2023-07-20T06:56:43;95079.28;;;23.93;68.42
51083;BME280;37131;42.694;23.350;2023-07-20T06:59:08;95085.81;;;23.96;68.64
51083;BME280;37131;42.694;23.350;2023-07-20T07:01:34;95094.00;;;24.08;68.29
51083;BME280;37131;42.694;23.350;2023-07-20T07:03:59;95103.53;;;24.18;66.05
51083;BME280;37131;42.694;23.350;2023-07-20T07:06:24;95103.38;;;24.41;65.14
51083;BME280;37131;42.694;23.350;2023-07-20T07:08:49;95106.50;;;24.60;64.36
51083;BME280;37131;42.694;23.350;2023-07-20T07:11:15;95100.53;;;24.63;64.36
51083;BME280;37131;42.694;23.350;2023-07-20T07:13:40;95106.56;;;24.90;63.73
51083;BME280;37131;42.694;23.350;2023-07-20T07:16:05;95115.72;;;24.80;61.99
51083;BME280;37131;42.694;23.350;2023-07-20T07:18:30;95131.88;;;24.66;64.42
51083;BME280;37131;42.694;23.350;2023-07-20T07:20:56;95133.13;;;24.78;63.12
51083;BME280;37131;42.694;23.350;2023-07-20T07:23:21;95139.53;;;24.85;61.45
51083;BME280;37131;42.694;23.350;2023-07-20T07:25:46;95147.06;;;24.83;60.62
51083;BME280;37131;42.694;23.350;2023-07-20T07:28:12;95149.06;;;24.95;60.17
51083;BME280;37131;42.694;23.350;2023-07-20T07:30:37;95148.22;;;25.12;60.23
51083;BME280;37131;42.694;23.350;2023-07-20T07:33:03;95153.53;;;25.21;59.49
51083;BME280;37131;42.694;23.350;2023-07-20T07:35:28;95135.50;;;25.18;59.13
51083;BME280;37131;42.694;23.350;2023-07-20T07:37:53;95127.13;;;25.28;59.70
51083;BME280;37131;42.694;23.350;2023-07-20T07:40:19;95125.25;;;25.29;59.28
51083;BME280;37131;42.694;23.350;2023-07-20T07:42:44;95122.28;;;25.30;57.88
51083;BME280;37131;42.694;23.350;2023-07-20T07:45:09;95123.63;;;25.45;58.65
51083;BME280;37131;42.694;23.350;2023-07-20T07:47:35;95130.06;;;25.44;58.54
51083;BME280;37131;42.694;23.350;2023-07-20T07:50:00;95112.84;;;25.63;58.48
51083;BME280;37131;42.694;23.350;2023-07-20T07:52:25;95090.25;;;25.60;57.83
51083;BME280;37131;42.694;23.350;2023-07-20T07:54:51;95070.38;;;25.49;56.86
51083;BME280;37131;42.694;23.350;2023-07-20T07:57:16;95086.72;;;25.47;57.33
51083;BME280;37131;42.694;23.350;2023-07-20T07:59:41;95101.88;;;25.55;57.23
51083;BME280;37131;42.694;23.350;2023-07-20T08:02:07;95086.63;;;25.65;57.79
51083;BME280;37131;42.694;23.350;2023-07-20T08:04:32;95083.16;;;25.64;57.64
51083;BME280;37131;42.694;23.350;2023-07-20T08:06:58;95104.34;;;25.69;58.20
51083;BME280;37131;42.694;23.350;2023-07-20T08:09:24;95122.53;;;25.97;56.93
51083;BME280;37131;42.694;23.350;2023-07-20T08:11:49;95124.25;;;26.02;57.34
51083;BME280;37131;42.694;23.350;2023-07-20T08:14:15;95131.91;;;26.24;56.20
51083;BME280;37131;42.694;23.350;2023-07-20T08:16:40;95136.09;;;26.34;56.41
51083;BME280;37131;42.694;23.350;2023-07-20T08:19:05;95123.75;;;26.42;57.05
51083;BME280;37131;42.694;23.350;2023-07-20T08:21:31;95122.19;;;26.41;57.80
51083;BME280;37131;42.694;23.350;2023-07-20T08:23:56;95148.25;;;26.44;59.16
51083;BME280;37131;42.694;23.350;2023-07-20T08:26:22;95135.41;;;26.58;58.92
51083;BME280;37131;42.694;23.350;2023-07-20T08:28:48;95127.63;;;26.66;57.84
51083;BME280;37131;42.694;23.350;2023-07-20T08:31:13;95131.94;;;26.58;55.66
51083;BME280;37131;42.694;23.350;2023-07-20T08:33:39;95132.94;;;26.53;54.60
51083;BME280;37131;42.694;23.350;2023-07-20T08:36:04;95147.66;;;26.59;53.79
51083;BME280;37131;42.694;23.350;2023-07-20T08:38:31;95145.25;;;26.67;53.16
51083;BME280;37131;42.694;23.350;2023-07-20T08:40:56;95134.53;;;26.67;52.31
51083;BME280;37131;42.694;23.350;2023-07-20T08:43:22;95133.34;;;26.76;51.95
51083;BME280;37131;42.694;23.350;2023-07-20T08:45:49;95135.25;;;26.76;49.98
51083;BME280;37131;42.694;23.350;2023-07-20T08:48:16;95132.66;;;26.67;49.01
51083;BME280;37131;42.694;23.350;2023-07-20T08:50:43;95142.72;;;26.70;48.70
51083;BME280;37131;42.694;23.350;2023-07-20T08:53:09;95126.81;;;26.86;49.88
51083;BME280;37131;42.694;23.350;2023-07-20T08:55:35;95129.06;;;26.84;49.05
51083;BME280;37131;42.694;23.350;2023-07-20T08:58:01;95126.13;;;26.77;48.37
51083;BME280;37131;42.694;23.350;2023-07-20T09:00:27;95118.03;;;26.86;48.29
51083;BME280;37131;42.694;23.350;2023-07-20T09:02:54;95120.03;;;27.01;46.78
51083;BME280;37131;42.694;23.350;2023-07-20T09:05:20;95118.13;;;27.02;46.35
51083;BME280;37131;42.694;23.350;2023-07-20T09:07:45;95108.47;;;27.09;46.22
51083;BME280;37131;42.694;23.350;2023-07-20T09:10:11;95109.38;;;27.26;46.97
51083;BME280;37131;42.694;23.350;2023-07-20T09:12:41;95101.59;;;27.33;46.57
51083;BME280;37131;42.694;23.350;2023-07-20T09:15:07;95106.59;;;27.35;45.84
51083;BME280;37131;42.694;23.350;2023-07-20T09:17:33;95103.00;;;27.30;46.71
51083;BME280;37131;42.694;23.350;2023-07-20T09:19:58;95091.63;;;27.46;45.98
51083;BME280;37131;42.694;23.350;2023-07-20T09:22:30;95098.34;;;27.52;46.51
51083;BME280;37131;42.694;23.350;2023-07-20T09:24:56;95082.91;;;27.74;46.77
51083;BME280;37131;42.694;23.350;2023-07-20T09:27:21;95085.09;;;27.84;46.46
51083;BME280;37131;42.694;23.350;2023-07-20T09:29:47;95083.63;;;27.99;47.04
51083;BME280;37131;42.694;23.350;2023-07-20T09:32:12;95077.78;;;28.22;45.88
51083;BME280;37131;42.694;23.350;2023-07-20T09:34:38;95079.44;;;28.26;45.46
51083;BME280;37131;42.694;23.350;2023-07-20T09:37:03;95094.13;;;28.32;45.77
51083;BME280;37131;42.694;23.350;2023-07-20T09:39:29;95089.31;;;28.38;44.05
51083;BME280;37131;42.694;23.350;2023-07-20T09:41:54;95081.19;;;28.50;45.38
51083;BME280;37131;42.694;23.350;2023-07-20T09:44:24;95073.75;;;28.72;44.37
51083;BME280;37131;42.694;23.350;2023-07-20T09:46:53;95066.81;;;28.87;43.53
51083;BME280;37131;42.694;23.350;2023-07-20T09:49:19;95073.50;;;29.09;43.21
51083;BME280;37131;42.694;23.350;2023-07-20T09:51:45;95071.91;;;29.08;42.24
51083;BME280;37131;42.694;23.350;2023-07-20T09:54:10;95064.25;;;29.22;41.93
51083;BME280;37131;42.694;23.350;2023-07-20T09:56:36;95045.03;;;29.56;41.89
51083;BME280;37131;42.694;23.350;2023-07-20T09:59:03;95031.44;;;29.84;40.46
51083;BME280;37131;42.694;23.350;2023-07-20T10:01:30;95031.41;;;29.65;39.97
51083;BME280;37131;42.694;23.350;2023-07-20T10:03:58;95026.66;;;29.58;40.07
51083;BME280;37131;42.694;23.350;2023-07-20T10:06:23;95047.31;;;29.38;39.84
51083;BME280;37131;42.694;23.350;2023-07-20T10:08:49;95050.72;;;29.19;39.62
51083;BME280;37131;42.694;23.350;2023-07-20T10:11:17;95053.22;;;29.12;39.86
51083;BME280;37131;42.694;23.350;2023-07-20T10:13:43;95055.28;;;29.02;39.42
51083;BME280;37131;42.694;23.350;2023-07-20T10:16:13;95050.63;;;29.15;39.58
51083;BME280;37131;42.694;23.350;2023-07-20T10:21:40;95060.44;;;29.24;39.52
51083;BME280;37131;42.694;23.350;2023-07-20T10:24:07;95060.00;;;29.05;40.04
51083;BME280;37131;42.694;23.350;2023-07-20T10:26:33;95068.41;;;28.88;41.15
51083;BME280;37131;42.694;23.350;2023-07-20T10:28:58;95075.22;;;28.85;41.36
51083;BME280;37131;42.694;23.350;2023-07-20T10:31:24;95057.91;;;28.83;41.50
51083;BME280;37131;42.694;23.350;2023-07-20T10:33:51;95043.19;;;28.77;41.67
51083;BME280;37131;42.694;23.350;2023-07-20T10:36:21;95025.69;;;28.67;41.06
51083;BME280;37131;42.694;23.350;2023-07-20T10:38:52;95043.78;;;28.70;41.75
51083;BME280;37131;42.694;23.350;2023-07-20T10:41:28;95046.66;;;28.61;41.73
51083;BME280;37131;42.694;23.350;2023-07-20T10:44:03;95054.38;;;28.50;40.94
51083;BME280;37131;42.694;23.350;2023-07-20T10:49:04;95010.69;;;28.34;40.95
51083;BME280;37131;42.694;23.350;2023-07-20T10:51:29;94972.28;;;28.30;42.23
51083;BME280;37131;42.694;23.350;2023-07-20T10:53:56;94997.03;;;28.39;41.45
51083;BME280;37131;42.694;23.350;2023-07-20T10:56:24;95017.88;;;28.46;42.73
51083;BME280;37131;42.694;23.350;2023-07-20T10:58:54;95016.88;;;28.66;41.67
51083;BME280;37131;42.694;23.350;2023-07-20T11:01:20;95008.38;;;28.80;39.30
51083;BME280;37131;42.694;23.350;2023-07-20T11:03:48;95005.97;;;28.75;38.83
51083;BME280;37131;42.694;23.350;2023-07-20T11:09:05;94979.94;;;28.76;39.51
51083;BME280;37131;42.694;23.350;2023-07-20T11:11:32;94968.38;;;29.07;38.90
51083;BME280;37131;42.694;23.350;2023-07-20T11:13:59;94968.97;;;29.16;39.45
51083;BME280;37131;42.694;23.350;2023-07-20T11:16:34;94976.56;;;29.14;39.96
51083;BME280;37131;42.694;23.350;2023-07-20T11:19:00;94980.53;;;29.36;39.91
51083;BME280;37131;42.694;23.350;2023-07-20T11:21:25;94967.75;;;29.30;39.44
51083;BME280;37131;42.694;23.350;2023-07-20T11:23:53;94972.91;;;29.38;39.84
51083;BME280;37131;42.694;23.350;2023-07-20T11:26:20;94966.63;;;29.31;39.86
51083;BME280;37131;42.694;23.350;2023-07-20T11:28:49;94962.22;;;29.22;40.25
51083;BME280;37131;42.694;23.350;2023-07-20T11:31:14;94960.09;;;29.32;40.44
51083;BME280;37131;42.694;23.350;2023-07-20T11:33:41;94959.44;;;29.54;39.75
51083;BME280;37131;42.694;23.350;2023-07-20T11:36:08;94955.25;;;29.77;40.01
51083;BME280;37131;42.694;23.350;2023-07-20T11:38:33;94948.47;;;30.02;39.87
51083;BME280;37131;42.694;23.350;2023-07-20T11:40:58;94944.09;;;30.17;39.57
51083;BME280;37131;42.694;23.350;2023-07-20T11:43:23;94942.91;;;30.38;38.96
51083;BME280;37131;42.694;23.350;2023-07-20T11:45:49;94939.97;;;30.43;38.29
51083;BME280;37131;42.694;23.350;2023-07-20T11:48:17;94945.41;;;30.47;38.81
51083;BME280;37131;42.694;23.350;2023-07-20T11:50:43;94938.75;;;30.64;39.13
51083;BME280;37131;42.694;23.350;2023-07-20T11:53:08;94932.84;;;30.54;38.18
51083;BME280;37131;42.694;23.350;2023-07-20T11:55:34;94932.28;;;30.68;38.08
51083;BME280;37131;42.694;23.350;2023-07-20T12:00:27;94923.03;;;30.92;37.75
51083;BME280;37131;42.694;23.350;2023-07-20T12:02:53;94914.13;;;30.88;37.79
51083;BME280;37131;42.694;23.350;2023-07-20T12:05:18;94919.94;;;30.90;36.58
51083;BME280;37131;42.694;23.350;2023-07-20T12:07:44;94914.59;;;30.94;35.91
51083;BME280;37131;42.694;23.350;2023-07-20T12:10:10;94907.59;;;30.89;36.25
51083;BME280;37131;42.694;23.350;2023-07-20T12:12:39;94906.94;;;30.96;36.52
51083;BME280;37131;42.694;23.350;2023-07-20T12:15:15;94900.22;;;31.09;37.16
51083;BME280;37131;42.694;23.350;2023-07-20T12:17:41;94907.38;;;31.28;35.94
51083;BME280;37131;42.694;23.350;2023-07-20T12:20:07;94903.78;;;31.17;35.81
51083;BME280;37131;42.694;23.350;2023-07-20T12:22:37;94898.44;;;31.21;35.79
51083;BME280;37131;42.694;23.350;2023-07-20T12:25:05;94899.06;;;31.41;36.45
51083;BME280;37131;42.694;23.350;2023-07-20T12:27:30;94896.03;;;31.46;35.87
51083;BME280;37131;42.694;23.350;2023-07-20T12:29:55;94897.59;;;31.47;36.41
51083;BME280;37131;42.694;23.350;2023-07-20T12:32:22;94889.03;;;31.72;36.24
51083;BME280;37131;42.694;23.350;2023-07-20T12:34:47;94883.84;;;31.93;35.02
51083;BME280;37131;42.694;23.350;2023-07-20T12:37:13;94884.59;;;31.90;35.21
51083;BME280;37131;42.694;23.350;2023-07-20T12:39:38;94887.59;;;31.81;34.53
51083;BME280;37131;42.694;23.350;2023-07-20T12:42:04;94882.72;;;31.94;35.13
51083;BME280;37131;42.694;23.350;2023-07-20T12:44:29;94876.13;;;31.92;33.31
51083;BME280;37131;42.694;23.350;2023-07-20T12:46:55;94880.00;;;31.91;33.31
51083;BME280;37131;42.694;23.350;2023-07-20T12:49:21;94872.81;;;32.06;33.13
51083;BME280;37131;42.694;23.350;2023-07-20T12:51:46;94870.69;;;32.26;33.07
51083;BME280;37131;42.694;23.350;2023-07-20T12:54:11;94876.69;;;32.08;32.94
51083;BME280;37131;42.694;23.350;2023-07-20T12:56:37;94874.91;;;31.86;32.47
51083;BME280;37131;42.694;23.350;2023-07-20T12:59:02;94883.53;;;32.02;32.17
51083;BME280;37131;42.694;23.350;2023-07-20T13:01:28;94875.81;;;31.97;32.37
51083;BME280;37131;42.694;23.350;2023-07-20T13:03:53;94875.81;;;31.97;32.58